Time,TemperatureF,DewpointF,PressureIn,WindDirection,WindDirectionDegrees,WindSpeedMPH,WindSpeedGustMPH,Humidity,HourlyPrecipIn,Conditions,Clouds,dailyrainin,SoftwareType,DateUTC
2013-09-01 00:06:00,66.9,66.3,29.69,WNW,293,0.0,0.0,98,0.00,,,0.00,Wunderground v.1.15,2013-09-01 04:06:00,
2013-09-01 00:16:00,66.6,66.0,29.69,WNW,294,1.0,1.0,98,0.00,,,0.00,Wunderground v.1.15,2013-09-01 04:16:00,
2013-09-01 00:26:00,66.6,66.0,29.69,WNW,293,0.0,1.0,98,0.00,,,0.00,Wunderground v.1.15,2013-09-01 04:26:00,
2013-09-01 00:36:00,66.6,66.0,29.69,WNW,294,0.0,2.0,98,0.00,,,0.00,Wunderground v.1.15,2013-09-01 04:36:00,
2013-09-01 00:46:00,66.4,65.8,29.69,WNW,294,2.0,2.0,98,0.00,,,0.00,Wunderground v.1.15,2013-09-01 04:46:00,
2013-09-01 00:56:00,66.3,65.7,29.69,WNW,293,0.0,0.0,98,0.00,,,0.00,Wunderground v.1.15,2013-09-01 04:56:00,
2013-09-01 01:06:00,66.1,65.5,29.69,WNW,294,0.0,0.0,98,0.00,,,0.00,Wunderground v.1.15,2013-09-01 05:06:00,
2013-09-01 01:36:00,66.4,65.8,29.68,WNW,293,0.0,0.0,98,0.00,,,0.01,Wunderground v.1.15,2013-09-01 05:36:00,
2013-09-01 01:46:00,66.4,65.8,29.68,WNW,293,1.0,2.0,98,0.00,,,0.01,Wunderground v.1.15,2013-09-01 05:46:00,
2013-09-01 01:56:00,66.4,66.1,29.68,WNW,293,0.0,0.0,99,0.00,,,0.01,Wunderground v.1.15,2013-09-01 05:56:00,
2013-09-01 02:35:00,66.1,65.8,29.68,WNW,294,0.0,0.0,99,0.00,,,0.01,Wunderground v.1.15,2013-09-01 06:35:00,
2013-09-01 03:06:00,65.8,65.5,29.68,WNW,294,0.0,0.0,99,0.00,,,0.01,Wunderground v.1.15,2013-09-01 07:06:00,
2013-09-01 03:26:00,66.1,65.8,29.68,WNW,294,0.0,0.0,99,0.00,,,0.01,Wunderground v.1.15,2013-09-01 07:26:00,
2013-09-01 03:56:00,66.1,65.8,29.68,WNW,293,0.0,0.0,99,0.00,,,0.01,Wunderground v.1.15,2013-09-01 07:56:00,
2013-09-01 04:06:00,66.1,65.8,29.69,WNW,293,0.0,2.0,99,0.00,,,0.01,Wunderground v.1.15,2013-09-01 08:06:00,
2013-09-01 04:16:00,66.3,66.0,29.70,WNW,293,2.0,2.0,99,0.00,,,0.01,Wunderground v.1.15,2013-09-01 08:16:00,
2013-09-01 04:36:00,66.1,65.8,29.70,WNW,294,0.0,0.0,99,0.00,,,0.01,Wunderground v.1.15,2013-09-01 08:36:00,
2013-09-01 04:46:00,66.1,65.8,29.70,WNW,294,0.0,0.0,99,0.00,,,0.01,Wunderground v.1.15,2013-09-01 08:46:00,
2013-09-01 04:56:00,65.8,65.5,29.70,WNW,294,0.0,0.0,99,0.00,,,0.01,Wunderground v.1.15,2013-09-01 08:56:00,
2013-09-01 05:06:00,65.6,65.3,29.70,WNW,294,0.0,0.0,99,0.00,,,0.01,Wunderground v.1.15,2013-09-01 09:06:00,
2013-09-01 05:16:00,65.8,65.5,29.71,WNW,294,0.0,0.0,99,0.00,,,0.01,Wunderground v.1.15,2013-09-01 09:16:00,
2013-09-01 05:25:00,65.6,65.3,29.71,WNW,293,0.0,0.0,99,0.00,,,0.01,Wunderground v.1.15,2013-09-01 09:25:00,
2013-09-01 05:36:00,65.3,65.0,29.71,WNW,293,1.0,1.0,99,0.00,,,0.01,Wunderground v.1.15,2013-09-01 09:36:00,
2013-09-01 05:46:00,65.5,65.2,29.72,WNW,293,0.0,1.0,99,0.00,,,0.01,Wunderground v.1.15,2013-09-01 09:46:00,
2013-09-01 05:56:00,65.6,65.3,29.72,WNW,294,0.0,1.0,99,0.00,,,0.01,Wunderground v.1.15,2013-09-01 09:56:00,
2013-09-01 06:16:00,65.3,65.0,29.72,WNW,294,0.0,0.0,99,0.00,,,0.01,Wunderground v.1.15,2013-09-01 10:16:00,
2013-09-01 06:26:00,65.8,65.5,29.72,WNW,294,0.0,0.0,99,0.00,,,0.01,Wunderground v.1.15,2013-09-01 10:26:00,
2013-09-01 06:56:00,66.0,65.7,29.73,WNW,294,0.0,0.0,99,0.00,,,0.01,Wunderground v.1.15,2013-09-01 10:56:00,
2013-09-01 07:46:00,67.3,67.0,29.75,WNW,293,0.0,0.0,99,0.00,,,0.01,Wunderground v.1.15,2013-09-01 11:46:00,
2013-09-01 07:56:00,67.3,67.0,29.75,WNW,294,0.0,0.0,99,0.00,,,0.01,Wunderground v.1.15,2013-09-01 11:56:00,
2013-09-01 08:16:00,69.3,69.0,29.76,WNW,294,0.0,0.0,99,0.00,,,0.01,Wunderground v.1.15,2013-09-01 12:16:00,
2013-09-01 08:26:00,68.4,67.8,29.76,WNW,294,2.0,2.0,98,0.00,,,0.01,Wunderground v.1.15,2013-09-01 12:26:00,
2013-09-01 08:46:00,72.0,68.9,29.76,WNW,294,0.0,2.0,90,0.00,,,0.01,Wunderground v.1.15,2013-09-01 12:46:00,
2013-09-01 09:06:00,73.9,65.9,29.76,NE,51,2.0,2.0,76,0.00,,,0.01,Wunderground v.1.15,2013-09-01 13:06:00,
2013-09-01 09:36:00,74.9,64.5,29.76,NW,313,2.0,4.0,70,0.00,,,0.01,Wunderground v.1.15,2013-09-01 13:36:00,
2013-09-01 10:06:00,75.8,64.5,29.76,ENE,68,2.0,2.0,68,0.00,,,0.01,Wunderground v.1.15,2013-09-01 14:06:00,
2013-09-01 10:16:00,76.7,65.3,29.75,NNE,17,2.0,2.0,68,0.00,,,0.01,Wunderground v.1.15,2013-09-01 14:16:00,
2013-09-01 10:26:00,77.2,65.0,29.75,ENE,75,2.0,2.0,66,0.00,,,0.01,Wunderground v.1.15,2013-09-01 14:26:00,
2013-09-01 10:36:00,77.9,64.3,29.75,SSE,150,1.0,1.0,63,0.00,,,0.01,Wunderground v.1.15,2013-09-01 14:36:00,
2013-09-01 10:46:00,77.9,65.2,29.75,South,171,3.0,3.0,65,0.00,,,0.01,Wunderground v.1.15,2013-09-01 14:46:00,
2013-09-01 11:06:00,79.0,65.8,29.76,SE,145,1.0,2.0,64,0.00,,,0.01,Wunderground v.1.15,2013-09-01 15:06:00,
2013-09-01 11:36:00,81.2,64.5,29.76,SE,138,1.0,1.0,57,0.00,,,0.01,Wunderground v.1.15,2013-09-01 15:36:00,
2013-09-01 11:46:00,82.6,64.8,29.75,SSE,150,1.0,3.0,55,0.00,,,0.01,Wunderground v.1.15,2013-09-01 15:46:00,
2013-09-01 11:56:00,83.0,64.6,29.75,SSE,161,1.0,1.0,54,0.00,,,0.01,Wunderground v.1.15,2013-09-01 15:56:00,
2013-09-01 12:26:00,82.2,64.4,29.75,SE,145,1.0,1.0,55,0.00,,,0.01,Wunderground v.1.15,2013-09-01 16:26:00,
2013-09-01 13:46:00,77.9,66.9,29.76,ESE,114,5.0,5.0,69,0.00,,,0.01,Wunderground v.1.15,2013-09-01 17:46:00,
2013-09-01 14:06:00,78.1,66.7,29.76,SSE,151,2.0,2.0,68,0.00,,,0.01,Wunderground v.1.15,2013-09-01 18:06:00,
2013-09-01 14:16:00,78.1,66.7,29.76,SE,143,1.0,3.0,68,0.00,,,0.01,Wunderground v.1.15,2013-09-01 18:16:00,
2013-09-01 14:26:00,78.1,67.5,29.76,SE,138,2.0,9.0,70,0.00,,,0.01,Wunderground v.1.15,2013-09-01 18:26:00,
2013-09-01 14:35:00,79.0,66.2,29.76,East,100,4.0,4.0,65,0.00,,,0.01,Wunderground v.1.15,2013-09-01 18:35:00,
2013-09-01 14:46:00,78.6,65.8,29.76,ESE,106,3.0,3.0,65,0.00,,,0.01,Wunderground v.1.15,2013-09-01 18:46:00,
2013-09-01 15:26:00,79.2,66.9,29.77,SSE,157,1.0,1.0,66,0.00,,,0.01,Wunderground v.1.15,2013-09-01 19:26:00,
2013-09-01 16:06:00,78.1,66.7,29.76,SE,143,4.0,4.0,68,0.00,,,0.01,Wunderground v.1.15,2013-09-01 20:06:00,
2013-09-01 16:16:00,78.3,66.9,29.76,SE,140,1.0,4.0,68,0.00,,,0.01,Wunderground v.1.15,2013-09-01 20:16:00,
2013-09-01 16:26:00,77.2,66.7,29.76,SE,145,3.0,3.0,70,0.00,,,0.01,Wunderground v.1.15,2013-09-01 20:26:00,
2013-09-01 16:36:00,77.7,66.7,29.76,SE,144,2.0,3.0,69,0.00,,,0.01,Wunderground v.1.15,2013-09-01 20:36:00,
2013-09-01 17:26:00,77.7,67.5,29.77,SSE,150,2.0,3.0,71,0.00,,,0.01,Wunderground v.1.15,2013-09-01 21:26:00,
2013-09-01 17:46:00,76.7,67.0,29.77,East,82,2.0,2.0,72,0.00,,,0.01,Wunderground v.1.15,2013-09-01 21:46:00,
2013-09-01 18:06:00,76.3,65.4,29.77,SE,124,1.0,1.0,69,0.00,,,0.01,Wunderground v.1.15,2013-09-01 22:06:00,
2013-09-01 18:16:00,76.1,66.0,29.77,SSE,148,1.0,4.0,71,0.00,,,0.01,Wunderground v.1.15,2013-09-01 22:16:00,
2013-09-01 18:26:00,76.1,66.8,29.77,SSE,148,0.0,0.0,73,0.00,,,0.01,Wunderground v.1.15,2013-09-01 22:26:00,
2013-09-01 18:36:00,75.6,66.3,29.77,SSE,149,0.0,0.0,73,0.00,,,0.01,Wunderground v.1.15,2013-09-01 22:36:00,
2013-09-01 18:46:00,74.7,65.5,29.78,SSE,149,0.0,0.0,73,0.00,,,0.01,Wunderground v.1.15,2013-09-01 22:46:00,
2013-09-01 18:56:00,74.4,65.6,29.78,SSE,149,1.0,3.0,74,0.00,,,0.01,Wunderground v.1.15,2013-09-01 22:56:00,
2013-09-01 19:16:00,73.9,66.6,29.78,SSE,153,0.0,0.0,78,0.00,,,0.01,Wunderground v.1.15,2013-09-01 23:16:00,
2013-09-01 19:26:00,73.3,66.8,29.78,SSE,153,0.0,0.0,80,0.00,,,0.01,Wunderground v.1.15,2013-09-01 23:26:00,
2013-09-01 20:06:00,72.3,66.8,29.80,SSE,154,1.0,4.0,83,0.00,,,0.01,Wunderground v.1.15,2013-09-02 00:06:00,
2013-09-01 20:15:00,71.8,67.4,29.80,SSE,149,3.0,3.0,86,0.00,,,0.01,Wunderground v.1.15,2013-09-02 00:15:00,
2013-09-01 20:26:00,71.5,67.8,29.80,SSE,148,1.0,4.0,88,0.00,,,0.01,Wunderground v.1.15,2013-09-02 00:26:00,
2013-09-01 20:46:00,69.3,67.2,29.81,East,92,4.0,5.0,93,0.08,,,0.04,Wunderground v.1.15,2013-09-02 00:46:00,
2013-09-01 20:56:00,68.8,67.3,29.81,ESE,118,2.0,4.0,95,0.06,,,0.05,Wunderground v.1.15,2013-09-02 00:56:00,
2013-09-01 21:06:00,68.6,67.4,29.81,ESE,119,3.0,3.0,96,0.00,,,0.05,Wunderground v.1.15,2013-09-02 01:06:00,
2013-09-01 21:36:00,68.4,67.2,29.81,SE,128,2.0,2.0,96,0.00,,,0.05,Wunderground v.1.15,2013-09-02 01:36:00,
2013-09-01 21:46:00,68.4,66.9,29.81,SE,139,2.0,3.0,95,0.00,,,0.05,Wunderground v.1.15,2013-09-02 01:46:00,
2013-09-01 21:56:00,68.9,66.8,29.81,SSE,165,2.0,2.0,93,0.00,,,0.05,Wunderground v.1.15,2013-09-02 01:56:00,
2013-09-01 22:16:00,68.9,67.1,29.81,SSE,165,0.0,0.0,94,0.00,,,0.05,Wunderground v.1.15,2013-09-02 02:16:00,
2013-09-01 22:26:00,68.8,67.3,29.81,SSE,165,0.0,0.0,95,0.00,,,0.05,Wunderground v.1.15,2013-09-02 02:26:00,
2013-09-01 23:06:00,68.3,66.8,29.81,SSE,165,0.0,0.0,95,0.00,,,0.06,Wunderground v.1.15,2013-09-02 03:06:00,
2013-09-01 23:16:00,68.1,66.9,29.81,SSE,165,0.0,0.0,96,0.00,,,0.06,Wunderground v.1.15,2013-09-02 03:16:00,
2013-09-01 23:26:00,68.1,66.9,29.81,SSE,165,0.0,0.0,96,0.00,,,0.06,Wunderground v.1.15,2013-09-02 03:26:00,
2013-09-01 23:56:00,68.3,66.2,29.80,ENE,73,1.0,1.0,93,0.00,,,0.06,Wunderground v.1.15,2013-09-02 03:56:00,